sensor_id;sensor_type;location;lat;lon;timestamp;P1;durP1;ratioP1;P2;durP2;ratioP2
54517;SDS011;40423;53.176;6.002;2023-09-12T00:01:09;34.47;;;29.55;;
54517;SDS011;40423;53.176;6.002;2023-09-12T00:03:35;33.28;;;29.38;;
54517;SDS011;40423;53.176;6.002;2023-09-12T00:06:01;28.77;;;25.48;;
54517;SDS011;40423;53.176;6.002;2023-09-12T00:08:29;33.33;;;28.05;;
54517;SDS011;40423;53.176;6.002;2023-09-12T00:11:05;30.70;;;26.70;;
54517;SDS011;40423;53.176;6.002;2023-09-12T00:13:35;35.13;;;27.58;;
54517;SDS011;40423;53.176;6.002;2023-09-12T00:16:00;35.83;;;27.48;;
54517;SDS011;40423;53.176;6.002;2023-09-12T00:18:26;36.92;;;28.92;;
54517;SDS011;40423;53.176;6.002;2023-09-12T00:20:52;33.40;;;27.65;;
54517;SDS011;40423;53.176;6.002;2023-09-12T00:23:19;34.13;;;28.88;;
54517;SDS011;40423;53.176;6.002;2023-09-12T00:25:46;28.77;;;25.65;;
54517;SDS011;40423;53.176;6.002;2023-09-12T00:28:12;37.67;;;30.15;;
54517;SDS011;40423;53.176;6.002;2023-09-12T00:30:37;38.25;;;31.67;;
54517;SDS011;40423;53.176;6.002;2023-09-12T00:33:03;44.65;;;33.00;;
54517;SDS011;40423;53.176;6.002;2023-09-12T00:35:29;36.97;;;27.40;;
54517;SDS011;40423;53.176;6.002;2023-09-12T00:37:55;34.58;;;28.33;;
54517;SDS011;40423;53.176;6.002;2023-09-12T00:40:21;33.83;;;27.90;;
54517;SDS011;40423;53.176;6.002;2023-09-12T00:42:46;35.70;;;29.27;;
54517;SDS011;40423;53.176;6.002;2023-09-12T00:45:12;32.10;;;25.98;;
54517;SDS011;40423;53.176;6.002;2023-09-12T00:47:38;33.58;;;27.45;;
54517;SDS011;40423;53.176;6.002;2023-09-12T00:50:04;35.53;;;29.15;;
54517;SDS011;40423;53.176;6.002;2023-09-12T00:52:30;30.25;;;26.60;;
54517;SDS011;40423;53.176;6.002;2023-09-12T00:55:00;30.17;;;26.70;;
54517;SDS011;40423;53.176;6.002;2023-09-12T00:57:26;31.75;;;24.95;;
54517;SDS011;40423;53.176;6.002;2023-09-12T00:59:55;33.85;;;28.02;;
54517;SDS011;40423;53.176;6.002;2023-09-12T01:02:22;31.38;;;26.55;;
54517;SDS011;40423;53.176;6.002;2023-09-12T01:04:50;31.17;;;25.85;;
54517;SDS011;40423;53.176;6.002;2023-09-12T01:07:16;33.47;;;29.27;;
54517;SDS011;40423;53.176;6.002;2023-09-12T01:09:42;30.85;;;27.20;;
54517;SDS011;40423;53.176;6.002;2023-09-12T01:12:08;29.45;;;25.10;;
54517;SDS011;40423;53.176;6.002;2023-09-12T01:14:34;39.70;;;30.23;;
54517;SDS011;40423;53.176;6.002;2023-09-12T01:16:59;42.33;;;30.17;;
54517;SDS011;40423;53.176;6.002;2023-09-12T01:19:26;34.40;;;28.92;;
54517;SDS011;40423;53.176;6.002;2023-09-12T01:27:28;37.47;;;29.90;;
54517;SDS011;40423;53.176;6.002;2023-09-12T01:29:58;34.17;;;29.13;;
54517;SDS011;40423;53.176;6.002;2023-09-12T01:32:31;38.25;;;32.28;;
54517;SDS011;40423;53.176;6.002;2023-09-12T01:35:00;34.53;;;28.33;;
54517;SDS011;40423;53.176;6.002;2023-09-12T01:37:28;34.05;;;28.80;;
54517;SDS011;40423;53.176;6.002;2023-09-12T01:39:55;31.95;;;28.50;;
54517;SDS011;40423;53.176;6.002;2023-09-12T01:42:21;34.50;;;29.50;;
54517;SDS011;40423;53.176;6.002;2023-09-12T01:44:49;37.83;;;32.40;;
54517;SDS011;40423;53.176;6.002;2023-09-12T01:47:16;35.28;;;31.38;;
54517;SDS011;40423;53.176;6.002;2023-09-12T01:49:45;35.50;;;31.15;;
54517;SDS011;40423;53.176;6.002;2023-09-12T01:52:13;38.85;;;32.15;;
54517;SDS011;40423;53.176;6.002;2023-09-12T01:54:40;33.13;;;25.88;;
54517;SDS011;40423;53.176;6.002;2023-09-12T01:57:07;31.45;;;26.33;;
54517;SDS011;40423;53.176;6.002;2023-09-12T01:59:34;34.13;;;28.13;;
54517;SDS011;40423;53.176;6.002;2023-09-12T02:02:00;36.88;;;29.35;;
54517;SDS011;40423;53.176;6.002;2023-09-12T02:04:25;37.75;;;31.35;;
54517;SDS011;40423;53.176;6.002;2023-09-12T02:06:51;38.53;;;30.98;;
54517;SDS011;40423;53.176;6.002;2023-09-12T02:09:17;38.60;;;30.70;;
54517;SDS011;40423;53.176;6.002;2023-09-12T02:11:42;37.80;;;29.90;;
54517;SDS011;40423;53.176;6.002;2023-09-12T02:14:08;33.58;;;28.40;;
54517;SDS011;40423;53.176;6.002;2023-09-12T02:16:36;36.70;;;29.70;;
54517;SDS011;40423;53.176;6.002;2023-09-12T02:19:05;35.08;;;29.13;;
54517;SDS011;40423;53.176;6.002;2023-09-12T02:21:31;34.08;;;28.30;;
54517;SDS011;40423;53.176;6.002;2023-09-12T02:23:57;33.80;;;27.42;;
54517;SDS011;40423;53.176;6.002;2023-09-12T02:26:22;33.15;;;27.17;;
54517;SDS011;40423;53.176;6.002;2023-09-12T02:28:48;27.45;;;24.13;;
54517;SDS011;40423;53.176;6.002;2023-09-12T02:31:14;25.05;;;22.48;;
54517;SDS011;40423;53.176;6.002;2023-09-12T02:33:39;28.25;;;24.83;;
54517;SDS011;40423;53.176;6.002;2023-09-12T02:36:08;25.40;;;22.65;;
54517;SDS011;40423;53.176;6.002;2023-09-12T02:38:33;33.67;;;26.88;;
54517;SDS011;40423;53.176;6.002;2023-09-12T02:40:59;32.38;;;28.27;;
54517;SDS011;40423;53.176;6.002;2023-09-12T02:43:25;30.15;;;26.83;;
54517;SDS011;40423;53.176;6.002;2023-09-12T02:45:51;34.83;;;27.70;;
54517;SDS011;40423;53.176;6.002;2023-09-12T02:48:16;38.42;;;28.73;;
54517;SDS011;40423;53.176;6.002;2023-09-12T02:50:42;63.38;;;30.08;;
54517;SDS011;40423;53.176;6.002;2023-09-12T02:53:08;58.10;;;28.42;;
54517;SDS011;40423;53.176;6.002;2023-09-12T02:55:33;34.45;;;26.10;;
54517;SDS011;40423;53.176;6.002;2023-09-12T02:58:04;26.65;;;22.35;;
54517;SDS011;40423;53.176;6.002;2023-09-12T03:00:29;43.13;;;23.65;;
54517;SDS011;40423;53.176;6.002;2023-09-12T03:02:55;35.70;;;22.58;;
54517;SDS011;40423;53.176;6.002;2023-09-12T03:05:21;47.58;;;22.48;;
54517;SDS011;40423;53.176;6.002;2023-09-12T03:07:46;32.60;;;22.98;;
54517;SDS011;40423;53.176;6.002;2023-09-12T03:10:13;72.15;;;25.88;;
54517;SDS011;40423;53.176;6.002;2023-09-12T03:12:38;52.63;;;25.45;;
54517;SDS011;40423;53.176;6.002;2023-09-12T03:15:04;34.30;;;23.40;;
54517;SDS011;40423;53.176;6.002;2023-09-12T03:17:30;41.78;;;22.85;;
54517;SDS011;40423;53.176;6.002;2023-09-12T03:19:56;66.20;;;29.40;;
54517;SDS011;40423;53.176;6.002;2023-09-12T03:22:21;46.15;;;26.45;;
54517;SDS011;40423;53.176;6.002;2023-09-12T03:24:47;28.67;;;21.45;;
54517;SDS011;40423;53.176;6.002;2023-09-12T03:27:13;40.95;;;24.23;;
54517;SDS011;40423;53.176;6.002;2023-09-12T03:29:38;49.55;;;27.58;;
54517;SDS011;40423;53.176;6.002;2023-09-12T03:32:04;50.53;;;26.52;;
54517;SDS011;40423;53.176;6.002;2023-09-12T03:34:30;43.67;;;26.55;;
54517;SDS011;40423;53.176;6.002;2023-09-12T03:36:56;81.28;;;26.60;;
54517;SDS011;40423;53.176;6.002;2023-09-12T03:39:21;33.55;;;27.25;;
54517;SDS011;40423;53.176;6.002;2023-09-12T03:41:47;88.63;;;31.58;;
54517;SDS011;40423;53.176;6.002;2023-09-12T03:44:13;318.85;;;39.28;;
54517;SDS011;40423;53.176;6.002;2023-09-12T03:46:38;42.97;;;30.05;;
54517;SDS011;40423;53.176;6.002;2023-09-12T03:49:04;46.33;;;29.65;;
54517;SDS011;40423;53.176;6.002;2023-09-12T03:51:30;48.80;;;28.60;;
54517;SDS011;40423;53.176;6.002;2023-09-12T03:53:55;58.30;;;30.70;;
54517;SDS011;40423;53.176;6.002;2023-09-12T03:56:21;61.55;;;29.35;;
54517;SDS011;40423;53.176;6.002;2023-09-12T03:58:47;38.40;;;25.88;;
54517;SDS011;40423;53.176;6.002;2023-09-12T04:01:12;30.20;;;25.65;;
54517;SDS011;40423;53.176;6.002;2023-09-12T04:03:38;50.97;;;29.33;;
54517;SDS011;40423;53.176;6.002;2023-09-12T04:06:04;28.25;;;24.08;;
54517;SDS011;40423;53.176;6.002;2023-09-12T04:08:30;29.77;;;25.52;;
54517;SDS011;40423;53.176;6.002;2023-09-12T04:10:57;49.45;;;31.52;;
54517;SDS011;40423;53.176;6.002;2023-09-12T04:13:23;39.95;;;27.55;;
54517;SDS011;40423;53.176;6.002;2023-09-12T04:15:48;50.67;;;26.52;;
54517;SDS011;40423;53.176;6.002;2023-09-12T04:18:14;83.55;;;29.17;;
54517;SDS011;40423;53.176;6.002;2023-09-12T04:20:40;49.20;;;25.05;;
54517;SDS011;40423;53.176;6.002;2023-09-12T04:23:06;65.53;;;27.30;;
54517;SDS011;40423;53.176;6.002;2023-09-12T04:25:31;36.53;;;24.40;;
54517;SDS011;40423;53.176;6.002;2023-09-12T04:27:58;32.45;;;24.83;;
54517;SDS011;40423;53.176;6.002;2023-09-12T04:30:24;70.88;;;27.13;;
54517;SDS011;40423;53.176;6.002;2023-09-12T04:32:50;51.97;;;28.95;;
54517;SDS011;40423;53.176;6.002;2023-09-12T04:35:15;25.85;;;22.33;;
54517;SDS011;40423;53.176;6.002;2023-09-12T04:37:42;29.10;;;23.45;;
54517;SDS011;40423;53.176;6.002;2023-09-12T04:40:08;53.72;;;27.00;;
54517;SDS011;40423;53.176;6.002;2023-09-12T04:42:34;40.47;;;29.98;;
54517;SDS011;40423;53.176;6.002;2023-09-12T04:45:00;43.88;;;27.55;;
54517;SDS011;40423;53.176;6.002;2023-09-12T04:47:25;45.45;;;25.73;;
54517;SDS011;40423;53.176;6.002;2023-09-12T04:49:52;51.08;;;29.83;;
54517;SDS011;40423;53.176;6.002;2023-09-12T04:52:18;40.92;;;28.40;;
54517;SDS011;40423;53.176;6.002;2023-09-12T04:54:44;38.33;;;28.13;;
54517;SDS011;40423;53.176;6.002;2023-09-12T04:57:09;33.17;;;24.02;;
54517;SDS011;40423;53.176;6.002;2023-09-12T04:59:35;43.88;;;26.80;;
54517;SDS011;40423;53.176;6.002;2023-09-12T05:02:01;49.13;;;28.77;;
54517;SDS011;40423;53.176;6.002;2023-09-12T05:04:27;43.35;;;30.48;;
54517;SDS011;40423;53.176;6.002;2023-09-12T05:06:52;55.08;;;28.27;;
54517;SDS011;40423;53.176;6.002;2023-09-12T05:09:18;33.83;;;26.15;;
54517;SDS011;40423;53.176;6.002;2023-09-12T05:11:44;55.35;;;31.80;;
54517;SDS011;40423;53.176;6.002;2023-09-12T05:14:10;35.10;;;29.25;;
54517;SDS011;40423;53.176;6.002;2023-09-12T05:16:35;51.92;;;29.85;;
54517;SDS011;40423;53.176;6.002;2023-09-12T05:19:01;34.75;;;28.88;;
54517;SDS011;40423;53.176;6.002;2023-09-12T05:21:27;41.85;;;30.27;;
54517;SDS011;40423;53.176;6.002;2023-09-12T05:23:52;42.58;;;31.00;;
54517;SDS011;40423;53.176;6.002;2023-09-12T05:26:18;40.63;;;27.58;;
54517;SDS011;40423;53.176;6.002;2023-09-12T05:28:44;32.53;;;26.58;;
54517;SDS011;40423;53.176;6.002;2023-09-12T05:31:09;37.78;;;30.05;;
54517;SDS011;40423;53.176;6.002;2023-09-12T05:33:35;41.20;;;29.83;;
54517;SDS011;40423;53.176;6.002;2023-09-12T05:36:01;74.97;;;32.35;;
54517;SDS011;40423;53.176;6.002;2023-09-12T05:38:27;68.43;;;31.25;;
54517;SDS011;40423;53.176;6.002;2023-09-12T05:40:53;40.25;;;31.08;;
54517;SDS011;40423;53.176;6.002;2023-09-12T05:43:19;33.47;;;28.23;;
54517;SDS011;40423;53.176;6.002;2023-09-12T05:45:44;34.65;;;27.67;;
54517;SDS011;40423;53.176;6.002;2023-09-12T05:48:10;56.85;;;30.95;;
54517;SDS011;40423;53.176;6.002;2023-09-12T05:50:39;31.35;;;27.00;;
54517;SDS011;40423;53.176;6.002;2023-09-12T05:53:05;45.65;;;29.25;;
54517;SDS011;40423;53.176;6.002;2023-09-12T05:55:30;62.20;;;34.90;;
54517;SDS011;40423;53.176;6.002;2023-09-12T05:57:56;36.88;;;26.35;;
54517;SDS011;40423;53.176;6.002;2023-09-12T06:00:32;35.22;;;31.35;;
54517;SDS011;40423;53.176;6.002;2023-09-12T06:02:58;111.40;;;37.40;;
54517;SDS011;40423;53.176;6.002;2023-09-12T06:05:24;32.42;;;27.00;;
54517;SDS011;40423;53.176;6.002;2023-09-12T06:07:49;32.28;;;27.65;;
54517;SDS011;40423;53.176;6.002;2023-09-12T06:10:15;36.47;;;30.65;;
54517;SDS011;40423;53.176;6.002;2023-09-12T06:12:41;35.17;;;30.23;;
54517;SDS011;40423;53.176;6.002;2023-09-12T06:15:07;32.35;;;27.58;;
54517;SDS011;40423;53.176;6.002;2023-09-12T06:17:33;39.53;;;30.77;;
54517;SDS011;40423;53.176;6.002;2023-09-12T06:19:59;34.13;;;28.17;;
54517;SDS011;40423;53.176;6.002;2023-09-12T06:22:25;40.70;;;34.15;;
54517;SDS011;40423;53.176;6.002;2023-09-12T06:24:51;40.60;;;33.80;;
54517;SDS011;40423;53.176;6.002;2023-09-12T06:27:17;53.78;;;36.33;;
54517;SDS011;40423;53.176;6.002;2023-09-12T06:29:47;39.70;;;32.63;;
54517;SDS011;40423;53.176;6.002;2023-09-12T06:32:14;48.42;;;36.10;;
54517;SDS011;40423;53.176;6.002;2023-09-12T06:34:40;52.08;;;36.60;;
54517;SDS011;40423;53.176;6.002;2023-09-12T06:37:07;59.70;;;39.78;;
54517;SDS011;40423;53.176;6.002;2023-09-12T06:39:32;43.15;;;35.80;;
54517;SDS011;40423;53.176;6.002;2023-09-12T06:41:58;45.85;;;34.17;;
54517;SDS011;40423;53.176;6.002;2023-09-12T06:44:24;65.15;;;37.90;;
54517;SDS011;40423;53.176;6.002;2023-09-12T06:46:50;43.95;;;35.40;;
54517;SDS011;40423;53.176;6.002;2023-09-12T06:49:15;53.42;;;38.67;;
54517;SDS011;40423;53.176;6.002;2023-09-12T06:51:41;58.40;;;39.80;;
54517;SDS011;40423;53.176;6.002;2023-09-12T06:54:07;56.15;;;37.97;;
54517;SDS011;40423;53.176;6.002;2023-09-12T06:56:32;44.20;;;33.22;;
54517;SDS011;40423;53.176;6.002;2023-09-12T06:59:02;52.20;;;39.22;;
54517;SDS011;40423;53.176;6.002;2023-09-12T07:01:29;62.42;;;41.47;;
54517;SDS011;40423;53.176;6.002;2023-09-12T07:03:55;63.95;;;43.15;;
54517;SDS011;40423;53.176;6.002;2023-09-12T07:06:21;57.67;;;40.38;;
54517;SDS011;40423;53.176;6.002;2023-09-12T07:08:47;59.42;;;40.33;;
54517;SDS011;40423;53.176;6.002;2023-09-12T07:11:13;61.45;;;42.35;;
54517;SDS011;40423;53.176;6.002;2023-09-12T07:13:39;65.85;;;44.13;;
54517;SDS011;40423;53.176;6.002;2023-09-12T07:16:05;71.85;;;46.33;;
54517;SDS011;40423;53.176;6.002;2023-09-12T07:18:31;69.78;;;46.67;;
54517;SDS011;40423;53.176;6.002;2023-09-12T07:21:01;68.25;;;46.92;;
54517;SDS011;40423;53.176;6.002;2023-09-12T07:23:28;71.68;;;45.97;;
54517;SDS011;40423;53.176;6.002;2023-09-12T07:25:55;73.78;;;48.08;;
54517;SDS011;40423;53.176;6.002;2023-09-12T07:28:26;65.32;;;44.63;;
54517;SDS011;40423;53.176;6.002;2023-09-12T07:30:52;63.28;;;43.97;;
54517;SDS011;40423;53.176;6.002;2023-09-12T07:33:21;65.45;;;44.30;;
54517;SDS011;40423;53.176;6.002;2023-09-12T07:35:47;71.10;;;48.47;;
54517;SDS011;40423;53.176;6.002;2023-09-12T07:38:13;67.68;;;45.47;;
54517;SDS011;40423;53.176;6.002;2023-09-12T07:40:42;69.32;;;46.97;;
54517;SDS011;40423;53.176;6.002;2023-09-12T07:43:08;65.13;;;44.28;;
54517;SDS011;40423;53.176;6.002;2023-09-12T07:45:34;68.30;;;47.92;;
54517;SDS011;40423;53.176;6.002;2023-09-12T07:48:11;64.05;;;46.92;;
54517;SDS011;40423;53.176;6.002;2023-09-12T07:50:37;73.70;;;47.22;;
54517;SDS011;40423;53.176;6.002;2023-09-12T07:53:06;64.60;;;45.15;;
54517;SDS011;40423;53.176;6.002;2023-09-12T07:55:36;68.75;;;47.33;;
54517;SDS011;40423;53.176;6.002;2023-09-12T07:58:10;67.90;;;45.65;;
54517;SDS011;40423;53.176;6.002;2023-09-12T08:00:40;64.72;;;45.78;;
54517;SDS011;40423;53.176;6.002;2023-09-12T08:03:06;67.80;;;46.50;;
54517;SDS011;40423;53.176;6.002;2023-09-12T08:05:31;63.25;;;44.88;;
54517;SDS011;40423;53.176;6.002;2023-09-12T08:07:57;63.50;;;44.25;;
54517;SDS011;40423;53.176;6.002;2023-09-12T08:10:23;64.05;;;40.90;;
54517;SDS011;40423;53.176;6.002;2023-09-12T08:12:49;61.53;;;43.35;;
54517;SDS011;40423;53.176;6.002;2023-09-12T08:15:14;62.72;;;41.92;;
54517;SDS011;40423;53.176;6.002;2023-09-12T08:17:40;62.65;;;43.53;;
54517;SDS011;40423;53.176;6.002;2023-09-12T08:20:07;56.72;;;39.83;;
54517;SDS011;40423;53.176;6.002;2023-09-12T08:22:37;58.13;;;40.65;;
54517;SDS011;40423;53.176;6.002;2023-09-12T08:25:03;53.88;;;38.55;;
54517;SDS011;40423;53.176;6.002;2023-09-12T08:27:29;62.13;;;43.35;;
54517;SDS011;40423;53.176;6.002;2023-09-12T08:29:55;54.35;;;38.50;;
54517;SDS011;40423;53.176;6.002;2023-09-12T08:32:21;53.08;;;37.85;;
54517;SDS011;40423;53.176;6.002;2023-09-12T08:34:46;51.53;;;37.60;;
54517;SDS011;40423;53.176;6.002;2023-09-12T08:37:12;56.55;;;39.63;;
54517;SDS011;40423;53.176;6.002;2023-09-12T08:39:44;56.75;;;39.85;;
54517;SDS011;40423;53.176;6.002;2023-09-12T08:42:14;57.88;;;39.30;;
54517;SDS011;40423;53.176;6.002;2023-09-12T08:44:43;55.60;;;39.08;;
54517;SDS011;40423;53.176;6.002;2023-09-12T08:47:11;57.50;;;39.03;;
54517;SDS011;40423;53.176;6.002;2023-09-12T08:49:39;51.25;;;35.45;;
54517;SDS011;40423;53.176;6.002;2023-09-12T08:52:07;46.67;;;35.63;;
54517;SDS011;40423;53.176;6.002;2023-09-12T08:54:33;51.63;;;37.97;;
54517;SDS011;40423;53.176;6.002;2023-09-12T08:57:00;50.72;;;37.33;;
54517;SDS011;40423;53.176;6.002;2023-09-12T08:59:29;53.22;;;36.20;;
54517;SDS011;40423;53.176;6.002;2023-09-12T09:01:56;46.95;;;34.28;;
54517;SDS011;40423;53.176;6.002;2023-09-12T09:04:23;44.63;;;34.92;;
54517;SDS011;40423;53.176;6.002;2023-09-12T09:06:52;42.75;;;30.17;;
54517;SDS011;40423;53.176;6.002;2023-09-12T09:09:19;44.17;;;32.15;;
54517;SDS011;40423;53.176;6.002;2023-09-12T09:11:46;47.35;;;30.88;;
54517;SDS011;40423;53.176;6.002;2023-09-12T09:14:13;38.40;;;28.85;;
54517;SDS011;40423;53.176;6.002;2023-09-12T09:16:39;37.08;;;27.20;;
54517;SDS011;40423;53.176;6.002;2023-09-12T09:19:05;36.95;;;26.25;;
54517;SDS011;40423;53.176;6.002;2023-09-12T09:21:36;32.78;;;25.02;;
54517;SDS011;40423;53.176;6.002;2023-09-12T09:24:09;31.05;;;21.88;;
54517;SDS011;40423;53.176;6.002;2023-09-12T09:26:46;30.42;;;21.35;;
54517;SDS011;40423;53.176;6.002;2023-09-12T09:29:17;29.88;;;20.77;;
54517;SDS011;40423;53.176;6.002;2023-09-12T09:31:47;23.40;;;19.48;;
54517;SDS011;40423;53.176;6.002;2023-09-12T09:34:14;26.90;;;20.80;;
54517;SDS011;40423;53.176;6.002;2023-09-12T09:36:48;26.50;;;18.98;;
54517;SDS011;40423;53.176;6.002;2023-09-12T09:39:15;27.13;;;20.40;;
54517;SDS011;40423;53.176;6.002;2023-09-12T09:41:42;24.58;;;19.58;;
54517;SDS011;40423;53.176;6.002;2023-09-12T09:44:12;24.13;;;18.08;;
54517;SDS011;40423;53.176;6.002;2023-09-12T09:46:38;24.80;;;17.67;;
54517;SDS011;40423;53.176;6.002;2023-09-12T09:49:15;26.85;;;18.45;;
54517;SDS011;40423;53.176;6.002;2023-09-12T09:51:43;25.83;;;18.23;;
54517;SDS011;40423;53.176;6.002;2023-09-12T09:54:09;22.67;;;17.17;;
54517;SDS011;40423;53.176;6.002;2023-09-12T09:56:46;20.65;;;16.60;;
54517;SDS011;40423;53.176;6.002;2023-09-12T09:59:16;23.40;;;18.30;;
54517;SDS011;40423;53.176;6.002;2023-09-12T10:01:43;23.00;;;17.27;;
54517;SDS011;40423;53.176;6.002;2023-09-12T10:04:10;24.17;;;17.85;;
54517;SDS011;40423;53.176;6.002;2023-09-12T10:06:36;22.55;;;17.58;;
54517;SDS011;40423;53.176;6.002;2023-09-12T10:09:11;21.42;;;17.60;;
54517;SDS011;40423;53.176;6.002;2023-09-12T10:14:04;24.55;;;19.30;;
54517;SDS011;40423;53.176;6.002;2023-09-12T10:19:26;21.05;;;15.75;;
54517;SDS011;40423;53.176;6.002;2023-09-12T10:24:32;28.75;;;20.20;;
54517;SDS011;40423;53.176;6.002;2023-09-12T10:27:00;25.67;;;18.95;;
54517;SDS011;40423;53.176;6.002;2023-09-12T10:29:27;20.63;;;14.43;;
54517;SDS011;40423;53.176;6.002;2023-09-12T10:31:53;22.70;;;13.35;;
54517;SDS011;40423;53.176;6.002;2023-09-12T10:34:19;21.70;;;15.73;;
54517;SDS011;40423;53.176;6.002;2023-09-12T10:36:47;19.85;;;13.70;;
54517;SDS011;40423;53.176;6.002;2023-09-12T10:39:14;18.17;;;13.02;;
54517;SDS011;40423;53.176;6.002;2023-09-12T10:41:40;16.70;;;11.98;;
54517;SDS011;40423;53.176;6.002;2023-09-12T10:44:09;18.30;;;13.32;;
54517;SDS011;40423;53.176;6.002;2023-09-12T10:46:39;17.15;;;13.85;;
54517;SDS011;40423;53.176;6.002;2023-09-12T10:49:06;20.08;;;14.18;;
54517;SDS011;40423;53.176;6.002;2023-09-12T10:51:40;18.95;;;14.40;;
54517;SDS011;40423;53.176;6.002;2023-09-12T10:54:12;18.42;;;14.77;;
54517;SDS011;40423;53.176;6.002;2023-09-12T10:57:08;16.52;;;13.43;;
54517;SDS011;40423;53.176;6.002;2023-09-12T11:02:30;19.15;;;14.13;;
54517;SDS011;40423;53.176;6.002;2023-09-12T11:05:02;15.52;;;12.60;;
54517;SDS011;40423;53.176;6.002;2023-09-12T11:12:44;17.30;;;12.68;;
54517;SDS011;40423;53.176;6.002;2023-09-12T11:15:11;14.77;;;12.25;;
54517;SDS011;40423;53.176;6.002;2023-09-12T11:17:42;20.35;;;14.32;;
54517;SDS011;40423;53.176;6.002;2023-09-12T11:20:11;20.67;;;14.77;;
54517;SDS011;40423;53.176;6.002;2023-09-12T11:30:22;18.98;;;12.95;;
54517;SDS011;40423;53.176;6.002;2023-09-12T11:32:50;17.25;;;11.55;;
54517;SDS011;40423;53.176;6.002;2023-09-12T11:35:22;16.55;;;12.15;;
54517;SDS011;40423;53.176;6.002;2023-09-12T11:37:53;13.60;;;10.32;;
54517;SDS011;40423;53.176;6.002;2023-09-12T11:40:42;30.75;;;13.77;;
54517;SDS011;40423;53.176;6.002;2023-09-12T11:43:23;16.00;;;11.55;;
54517;SDS011;40423;53.176;6.002;2023-09-12T11:45:50;15.63;;;11.57;;
54517;SDS011;40423;53.176;6.002;2023-09-12T11:48:19;13.93;;;10.45;;
54517;SDS011;40423;53.176;6.002;2023-09-12T11:50:55;16.75;;;12.38;;
54517;SDS011;40423;53.176;6.002;2023-09-12T11:53:25;17.45;;;11.73;;
54517;SDS011;40423;53.176;6.002;2023-09-12T11:55:56;12.23;;;10.63;;
54517;SDS011;40423;53.176;6.002;2023-09-12T11:58:24;15.80;;;12.25;;
54517;SDS011;40423;53.176;6.002;2023-09-12T12:00:52;16.83;;;10.45;;
54517;SDS011;40423;53.176;6.002;2023-09-12T12:03:20;16.08;;;11.90;;
54517;SDS011;40423;53.176;6.002;2023-09-12T12:05:47;12.73;;;11.30;;
54517;SDS011;40423;53.176;6.002;2023-09-12T12:08:14;14.60;;;10.77;;
54517;SDS011;40423;53.176;6.002;2023-09-12T12:10:41;14.23;;;10.02;;
54517;SDS011;40423;53.176;6.002;2023-09-12T12:13:11;13.32;;;9.85;;
54517;SDS011;40423;53.176;6.002;2023-09-12T12:15:42;13.15;;;9.15;;
54517;SDS011;40423;53.176;6.002;2023-09-12T12:18:08;14.45;;;8.07;;
54517;SDS011;40423;53.176;6.002;2023-09-12T12:20:34;17.35;;;9.50;;
54517;SDS011;40423;53.176;6.002;2023-09-12T12:22:59;12.73;;;9.57;;
54517;SDS011;40423;53.176;6.002;2023-09-12T12:25:25;10.60;;;9.18;;
54517;SDS011;40423;53.176;6.002;2023-09-12T12:27:51;14.02;;;10.80;;
54517;SDS011;40423;53.176;6.002;2023-09-12T12:30:17;13.75;;;10.10;;
54517;SDS011;40423;53.176;6.002;2023-09-12T12:32:44;11.93;;;8.85;;
54517;SDS011;40423;53.176;6.002;2023-09-12T12:35:22;10.48;;;8.00;;
54517;SDS011;40423;53.176;6.002;2023-09-12T12:40:15;12.43;;;8.95;;
54517;SDS011;40423;53.176;6.002;2023-09-12T12:42:42;13.35;;;10.00;;
54517;SDS011;40423;53.176;6.002;2023-09-12T12:47:38;9.70;;;6.63;;
54517;SDS011;40423;53.176;6.002;2023-09-12T12:50:10;10.25;;;7.50;;
54517;SDS011;40423;53.176;6.002;2023-09-12T12:52:37;8.45;;;6.70;;
54517;SDS011;40423;53.176;6.002;2023-09-12T12:55:04;8.63;;;6.55;;
54517;SDS011;40423;53.176;6.002;2023-09-12T12:57:37;9.82;;;7.05;;
54517;SDS011;40423;53.176;6.002;2023-09-12T13:00:07;6.70;;;5.18;;
54517;SDS011;40423;53.176;6.002;2023-09-12T13:02:38;7.38;;;5.35;;
54517;SDS011;40423;53.176;6.002;2023-09-12T13:05:06;8.13;;;5.25;;
54517;SDS011;40423;53.176;6.002;2023-09-12T13:07:44;7.10;;;5.53;;
54517;SDS011;40423;53.176;6.002;2023-09-12T13:10:09;6.97;;;5.22;;
54517;SDS011;40423;53.176;6.002;2023-09-12T13:12:35;11.10;;;5.82;;
54517;SDS011;40423;53.176;6.002;2023-09-12T13:15:02;7.68;;;6.03;;
54517;SDS011;40423;53.176;6.002;2023-09-12T13:17:29;9.23;;;5.45;;
54517;SDS011;40423;53.176;6.002;2023-09-12T13:19:55;8.20;;;5.70;;
54517;SDS011;40423;53.176;6.002;2023-09-12T13:22:20;8.27;;;5.20;;
54517;SDS011;40423;53.176;6.002;2023-09-12T13:24:46;7.75;;;5.85;;
54517;SDS011;40423;53.176;6.002;2023-09-12T13:27:13;9.25;;;5.40;;
54517;SDS011;40423;53.176;6.002;2023-09-12T13:29:39;6.63;;;4.65;;
54517;SDS011;40423;53.176;6.002;2023-09-12T13:32:04;7.95;;;4.93;;
54517;SDS011;40423;53.176;6.002;2023-09-12T13:34:30;9.50;;;5.78;;
54517;SDS011;40423;53.176;6.002;2023-09-12T13:36:56;7.85;;;5.18;;
54517;SDS011;40423;53.176;6.002;2023-09-12T13:39:23;8.65;;;5.10;;
54517;SDS011;40423;53.176;6.002;2023-09-12T13:41:49;7.30;;;4.70;;
54517;SDS011;40423;53.176;6.002;2023-09-12T13:44:16;7.50;;;5.32;;
54517;SDS011;40423;53.176;6.002;2023-09-12T13:46:42;7.75;;;4.00;;
54517;SDS011;40423;53.176;6.002;2023-09-12T13:49:11;7.72;;;5.22;;
54517;SDS011;40423;53.176;6.002;2023-09-12T13:51:36;7.55;;;5.30;;
54517;SDS011;40423;53.176;6.002;2023-09-12T13:54:03;6.88;;;5.22;;
54517;SDS011;40423;53.176;6.002;2023-09-12T13:56:29;7.22;;;4.90;;
54517;SDS011;40423;53.176;6.002;2023-09-12T13:58:55;10.45;;;5.60;;
54517;SDS011;40423;53.176;6.002;2023-09-12T14:01:20;6.95;;;5.68;;
54517;SDS011;40423;53.176;6.002;2023-09-12T14:03:47;11.13;;;6.00;;
54517;SDS011;40423;53.176;6.002;2023-09-12T14:06:13;12.95;;;5.70;;
54517;SDS011;40423;53.176;6.002;2023-09-12T14:08:39;7.38;;;5.93;;
54517;SDS011;40423;53.176;6.002;2023-09-12T14:11:05;7.03;;;5.28;;
54517;SDS011;40423;53.176;6.002;2023-09-12T14:13:30;8.93;;;5.57;;
54517;SDS011;40423;53.176;6.002;2023-09-12T14:15:56;7.43;;;5.25;;
54517;SDS011;40423;53.176;6.002;2023-09-12T14:18:22;7.28;;;4.40;;
54517;SDS011;40423;53.176;6.002;2023-09-12T14:20:47;8.15;;;4.97;;
54517;SDS011;40423;53.176;6.002;2023-09-12T14:23:14;8.80;;;4.18;;
54517;SDS011;40423;53.176;6.002;2023-09-12T14:25:41;9.13;;;4.32;;
54517;SDS011;40423;53.176;6.002;2023-09-12T14:28:07;7.13;;;4.90;;
54517;SDS011;40423;53.176;6.002;2023-09-12T14:30:32;6.60;;;4.47;;
54517;SDS011;40423;53.176;6.002;2023-09-12T14:33:01;7.97;;;4.60;;
54517;SDS011;40423;53.176;6.002;2023-09-12T14:35:27;8.70;;;4.50;;
54517;SDS011;40423;53.176;6.002;2023-09-12T14:37:53;5.13;;;4.15;;
54517;SDS011;40423;53.176;6.002;2023-09-12T14:40:19;6.60;;;4.43;;
54517;SDS011;40423;53.176;6.002;2023-09-12T14:42:45;5.95;;;4.03;;
54517;SDS011;40423;53.176;6.002;2023-09-12T14:45:10;8.05;;;4.30;;
54517;SDS011;40423;53.176;6.002;2023-09-12T14:47:36;7.22;;;4.38;;
54517;SDS011;40423;53.176;6.002;2023-09-12T14:50:02;6.72;;;4.57;;
54517;SDS011;40423;53.176;6.002;2023-09-12T14:52:28;9.32;;;4.43;;
54517;SDS011;40423;53.176;6.002;2023-09-12T14:54:54;5.10;;;3.30;;
54517;SDS011;40423;53.176;6.002;2023-09-12T14:57:23;5.03;;;3.40;;
54517;SDS011;40423;53.176;6.002;2023-09-12T14:59:49;7.45;;;4.22;;